Beauraing, Belgium
Current Conditions -  °F | °C
As of 7:25 AM on Sunday 21 Dec 2014 (Local Time) from EBFS Reporting Station
Clear Clear  
Wind Chill: 31°   Ceiling: Unl
Heat Index: 36°   Visibility: 5mi
Dew Point: 36°   Wind: 6mph
Humidity: 100%   Direction: 230°SW
Pressure: 30.45"   Gusts: NA
Location:  50.11°N, 4.96°E
Report Text: EBFS 210625Z AUTO 23005KT 8000 NCD 02/02 Q1031 BLU
Loading
Personal Weather Stations






























Interactive Weather Map New forecast layout! Learn more

10-Day Weather Forecast

Advertisements
Track Severe Weather on mobile